Time;durP1;ratioP1;P1;durP2;ratioP2;P2;SDS_P1;SDS_P2;PMS_P1;PMS_P2;Temp;Humidity;BMP_temperature;BMP_pressure;BME280_temperature;BME280_humidity;BME280_pressure;Samples;Min_cycle;Max_cycle;Signal;HPM_P1;HPM_P2
2022/03/21 00:00:38;;;;;;;;;;;;;;;5.66;46.61;97731.28;4947649;29;19947;-70
2022/03/21 00:03:05;;;;;;;;;;;;;;;5.60;47.22;97730.13;4947282;29;19948;-71
2022/03/21 00:05:31;;;;;;;;;;;;;;;5.56;47.44;97734.00;4947390;29;19963;-70
2022/03/21 00:07:57;;;;;;;;;;;;;;;5.54;47.19;97742.94;4948138;29;20311;-70
2022/03/21 00:10:23;;;;;;;;;;;;;;;5.51;47.36;97740.66;4950670;29;19943;-70
2022/03/21 00:12:51;;;;;;;;;;;;;;;5.48;47.68;97742.59;4945802;29;19957;-70
2022/03/21 00:15:17;;;;;;;;;;;;;;;5.44;47.77;97743.88;4946356;29;19952;-70
2022/03/21 00:17:43;;;;;;;;;;;;;;;5.41;47.54;97738.16;4949881;29;19965;-70
2022/03/21 00:20:10;;;;;;;;;;;;;;;5.34;47.88;97737.13;4950460;29;20004;-70
2022/03/21 00:22:37;;;;;;;;;;;;;;;5.31;47.92;97740.03;4947131;29;19953;-70
2022/03/21 00:25:05;;;;;;;;;;;;;;;5.27;48.27;97744.72;4948498;29;19955;-70
2022/03/21 00:27:32;;;;;;;;;;;;;;;5.23;48.31;97746.81;4948409;29;20334;-70
2022/03/21 00:29:58;;;;;;;;;;;;;;;5.19;48.28;97748.09;4951715;29;20423;-70
2022/03/21 00:32:23;;;;;;;;;;;;;;;5.13;48.67;97748.69;4946445;29;20042;-70
2022/03/21 00:34:49;;;;;;;;;;;;;;;5.07;48.96;97739.69;4941233;29;20085;-70
2022/03/21 00:37:15;;;;;;;;;;;;;;;5.03;48.98;97748.75;4945000;29;19953;-70
2022/03/21 00:39:42;;;;;;;;;;;;;;;4.99;48.83;97744.84;4952177;29;19954;-70
2022/03/21 00:42:10;;;;;;;;;;;;;;;4.93;48.88;97742.84;4946289;29;19992;-70
2022/03/21 00:44:38;;;;;;;;;;;;;;;4.89;48.85;97746.69;4940681;29;20423;-70
2022/03/21 00:47:04;;;;;;;;;;;;;;;4.85;49.12;97745.34;4947749;29;20411;-70
2022/03/21 00:49:30;;;;;;;;;;;;;;;4.82;49.19;97743.06;4949783;29;19955;-70
2022/03/21 00:51:56;;;;;;;;;;;;;;;4.79;49.32;97749.38;4943667;29;19994;-70
2022/03/21 00:54:22;;;;;;;;;;;;;;;4.75;49.53;97740.25;4939975;29;19955;-70
2022/03/21 00:56:48;;;;;;;;;;;;;;;4.71;49.93;97751.91;4952775;29;19958;-70
2022/03/21 00:59:13;;;;;;;;;;;;;;;4.69;49.68;97751.25;4944793;29;20037;-70
2022/03/21 01:01:39;;;;;;;;;;;;;;;4.66;49.61;97757.56;4942610;29;19953;-71
2022/03/21 01:04:05;;;;;;;;;;;;;;;4.62;50.04;97753.63;4934480;29;20026;-70
2022/03/21 01:06:31;;;;;;;;;;;;;;;4.60;49.78;97754.72;4945648;29;19951;-70
2022/03/21 01:08:57;;;;;;;;;;;;;;;4.57;50.11;97758.44;4946585;29;20357;-70
2022/03/21 01:11:23;;;;;;;;;;;;;;;4.55;50.00;97743.97;4946276;29;19955;-70
2022/03/21 01:13:49;;;;;;;;;;;;;;;4.52;50.15;97749.47;4947464;29;19958;-70
2022/03/21 01:16:15;;;;;;;;;;;;;;;4.50;50.13;97752.19;4945297;29;19956;-70
2022/03/21 01:18:44;;;;;;;;;;;;;;;4.47;50.25;97744.69;4946638;29;19996;-70
2022/03/21 01:21:11;;;;;;;;;;;;;;;4.46;49.85;97750.84;4947245;29;19963;-70
2022/03/21 01:23:37;;;;;;;;;;;;;;;4.42;50.37;97746.91;4949185;29;19947;-70
2022/03/21 01:26:03;;;;;;;;;;;;;;;4.38;50.18;97746.38;4943858;29;19973;-70
2022/03/21 01:28:29;;;;;;;;;;;;;;;4.36;50.04;97750.09;4945672;29;19956;-70
2022/03/21 01:30:55;;;;;;;;;;;;;;;4.31;50.22;97742.75;4946333;29;19948;-70
2022/03/21 01:33:21;;;;;;;;;;;;;;;4.28;50.83;97737.84;4946089;29;19962;-70
2022/03/21 01:35:47;;;;;;;;;;;;;;;4.26;50.70;97750.97;4946675;28;20426;-70
2022/03/21 01:38:13;;;;;;;;;;;;;;;4.23;50.53;97748.66;4940802;29;20394;-70
2022/03/21 01:40:39;;;;;;;;;;;;;;;4.20;50.64;97748.13;4948519;29;20013;-70
2022/03/21 01:43:11;;;;;;;;;;;;;;;4.16;50.66;97741.59;4950509;29;19953;-70
2022/03/21 01:45:37;;;;;;;;;;;;;;;4.14;50.75;97746.13;4929794;29;19949;-70
2022/03/21 01:48:03;;;;;;;;;;;;;;;4.13;50.68;97744.50;4945130;29;19956;-70
2022/03/21 01:50:29;;;;;;;;;;;;;;;4.11;50.86;97751.59;4946305;29;19967;-70
2022/03/21 01:55:43;;;;;;;;;;;;;;;4.09;50.71;97741.34;4943821;29;19958;-70
2022/03/21 01:55:44;;;;;;;;;;;;;;;4.05;50.88;97732.22;4940933;29;19953;-70
2022/03/21 01:58:13;;;;;;;;;;;;;;;4.03;51.53;97736.75;4943493;29;19968;-71
2022/03/21 02:00:41;;;;;;;;;;;;;;;4.01;51.70;97733.47;4948940;29;19949;-70
2022/03/21 02:03:06;;;;;;;;;;;;;;;3.99;51.44;97730.19;4950327;29;20332;-71
2022/03/21 02:05:35;;;;;;;;;;;;;;;3.98;51.44;97731.19;4941250;29;19947;-71
2022/03/21 02:08:01;;;;;;;;;;;;;;;3.94;51.17;97730.63;4946277;29;20388;-71
2022/03/21 02:10:27;;;;;;;;;;;;;;;3.92;51.22;97735.16;4949568;29;19948;-70
2022/03/21 02:12:53;;;;;;;;;;;;;;;3.88;51.42;97735.59;4947453;29;20390;-70
2022/03/21 02:15:19;;;;;;;;;;;;;;;3.85;51.67;97731.50;4940548;29;19983;-70
2022/03/21 02:17:46;;;;;;;;;;;;;;;3.82;51.65;97737.81;4943749;29;19961;-71
2022/03/21 02:20:16;;;;;;;;;;;;;;;3.80;52.30;97736.31;4945396;29;19956;-70
2022/03/21 02:22:56;;;;;;;;;;;;;;;3.76;52.01;97737.53;4950576;29;19957;-71
2022/03/21 02:25:30;;;;;;;;;;;;;;;3.72;52.13;97747.41;4927596;29;20431;-71
2022/03/21 02:27:58;;;;;;;;;;;;;;;3.71;52.58;97747.53;4942499;29;19958;-71
2022/03/21 02:30:26;;;;;;;;;;;;;;;3.70;52.64;97751.13;4942693;29;19956;-71
2022/03/21 02:32:53;;;;;;;;;;;;;;;3.70;52.46;97743.34;4949652;29;19945;-71
2022/03/21 02:35:19;;;;;;;;;;;;;;;3.70;52.41;97740.72;4949414;29;20414;-71
2022/03/21 02:37:46;;;;;;;;;;;;;;;3.72;52.49;97742.22;4946330;29;20297;-71
2022/03/21 02:40:11;;;;;;;;;;;;;;;3.74;52.89;97747.25;4946350;29;19951;-71
2022/03/21 02:42:37;;;;;;;;;;;;;;;3.71;52.92;97742.34;4940558;29;19949;-71
2022/03/21 02:45:04;;;;;;;;;;;;;;;3.68;52.76;97750.44;4927860;29;19955;-71
2022/03/21 02:47:30;;;;;;;;;;;;;;;3.67;52.51;97754.78;4950473;28;19956;-71
2022/03/21 02:49:57;;;;;;;;;;;;;;;3.66;52.87;97760.94;4950897;29;19945;-71
2022/03/21 02:52:24;;;;;;;;;;;;;;;3.63;52.48;97756.03;4947230;29;19946;-71
2022/03/21 02:54:50;;;;;;;;;;;;;;;3.61;52.33;97756.19;4946293;29;20384;-71
2022/03/21 02:57:16;;;;;;;;;;;;;;;3.60;52.53;97751.94;4949744;29;19948;-71
2022/03/21 02:59:41;;;;;;;;;;;;;;;3.55;52.97;97754.16;4950178;29;20017;-71
2022/03/21 03:02:08;;;;;;;;;;;;;;;3.51;52.81;97759.75;4948187;29;19954;-71
2022/03/21 03:04:34;;;;;;;;;;;;;;;3.48;52.97;97760.84;4944743;29;20306;-71
2022/03/21 03:06:59;;;;;;;;;;;;;;;3.44;52.79;97754.31;4950193;29;19994;-71
2022/03/21 03:09:25;;;;;;;;;;;;;;;3.39;53.30;97757.31;4947705;29;20030;-70
2022/03/21 03:11:51;;;;;;;;;;;;;;;3.37;53.74;97761.84;4952789;29;19970;-70
2022/03/21 03:14:17;;;;;;;;;;;;;;;3.32;53.56;97758.84;4950154;29;20004;-70
2022/03/21 03:16:43;;;;;;;;;;;;;;;3.28;53.42;97757.50;4948495;29;19951;-70
2022/03/21 03:19:09;;;;;;;;;;;;;;;3.23;53.89;97755.31;4946131;29;20429;-70
2022/03/21 03:21:36;;;;;;;;;;;;;;;3.17;54.11;97771.44;4947703;29;19961;-71
2022/03/21 03:24:03;;;;;;;;;;;;;;;3.15;53.85;97775.94;4936363;29;19947;-70
2022/03/21 03:26:29;;;;;;;;;;;;;;;3.12;54.64;97770.19;4948539;29;20348;-70
2022/03/21 03:28:55;;;;;;;;;;;;;;;3.12;54.41;97776.19;4944132;29;19952;-70
2022/03/21 03:31:21;;;;;;;;;;;;;;;3.13;54.54;97787.38;4948188;29;19946;-70
2022/03/21 03:33:47;;;;;;;;;;;;;;;3.10;54.44;97783.28;4948782;29;19944;-70
2022/03/21 03:36:15;;;;;;;;;;;;;;;3.11;54.38;97778.91;4947343;29;19980;-71
2022/03/21 03:38:41;;;;;;;;;;;;;;;3.10;54.65;97785.06;4951425;29;20124;-70
2022/03/21 03:41:10;;;;;;;;;;;;;;;3.08;54.39;97780.03;4952285;29;20312;-70
2022/03/21 03:43:36;;;;;;;;;;;;;;;3.05;55.15;97788.91;4945167;29;19977;-70
2022/03/21 03:46:02;;;;;;;;;;;;;;;3.02;54.67;97789.19;4946355;29;19964;-70
2022/03/21 03:48:28;;;;;;;;;;;;;;;2.99;55.16;97788.63;4949482;29;19954;-70
2022/03/21 03:50:54;;;;;;;;;;;;;;;2.97;55.07;97793.94;4948098;29;19953;-70
2022/03/21 03:53:22;;;;;;;;;;;;;;;2.96;55.46;97788.88;4951343;29;20358;-70
2022/03/21 03:55:48;;;;;;;;;;;;;;;2.97;55.34;97795.72;4951719;29;19949;-70
2022/03/21 03:58:14;;;;;;;;;;;;;;;2.95;55.12;97790.66;4946254;28;20026;-70
2022/03/21 04:00:40;;;;;;;;;;;;;;;2.98;55.32;97795.59;4941795;29;19950;-70
2022/03/21 04:05:50;;;;;;;;;;;;;;;3.01;55.99;97792.72;4948442;29;19945;-70
2022/03/21 04:08:16;;;;;;;;;;;;;;;2.99;55.61;97783.44;4930318;29;19949;-71
2022/03/21 04:10:42;;;;;;;;;;;;;;;2.98;55.86;97784.38;4948306;29;19949;-70
2022/03/21 04:13:08;;;;;;;;;;;;;;;2.95;56.04;97775.13;4948364;29;19957;-71
2022/03/21 04:15:34;;;;;;;;;;;;;;;2.92;56.44;97790.94;4947028;29;19983;-70
2022/03/21 04:18:04;;;;;;;;;;;;;;;3.10;74.83;97801.44;4943806;29;19953;-70
2022/03/21 04:20:31;;;;;;;;;;;;;;;3.61;72.33;97787.31;4953840;29;20396;-70
2022/03/21 04:22:57;;;;;;;;;;;;;;;3.80;58.99;97716.38;4947775;29;19946;-71
2022/03/21 04:25:23;;;;;;;;;;;;;;;3.74;57.13;97722.16;4947274;29;19975;-71
2022/03/21 04:27:49;;;;;;;;;;;;;;;3.61;55.81;97727.66;4943210;29;19956;-70
2022/03/21 04:30:15;;;;;;;;;;;;;;;3.47;56.00;97729.88;4950912;29;20292;-71
2022/03/21 04:32:41;;;;;;;;;;;;;;;3.32;55.59;97739.88;4945041;29;19951;-71
2022/03/21 04:35:07;;;;;;;;;;;;;;;3.21;55.94;97751.22;4945872;29;19947;-70
2022/03/21 04:37:33;;;;;;;;;;;;;;;3.11;56.19;97753.84;4945910;29;20302;-71
2022/03/21 04:39:59;;;;;;;;;;;;;;;3.04;56.62;97765.69;4950134;29;20032;-71
2022/03/21 04:42:25;;;;;;;;;;;;;;;2.97;56.64;97775.00;4940800;29;19995;-71
2022/03/21 04:44:51;;;;;;;;;;;;;;;2.91;56.61;97780.72;4950319;29;20014;-70
2022/03/21 04:47:19;;;;;;;;;;;;;;;2.85;56.60;97777.69;4950438;29;19950;-71
2022/03/21 04:49:44;;;;;;;;;;;;;;;2.80;57.47;97777.28;4947097;29;20434;-71
2022/03/21 04:52:12;;;;;;;;;;;;;;;2.79;57.16;97777.44;4947158;29;19958;-71
2022/03/21 04:54:39;;;;;;;;;;;;;;;2.77;56.88;97785.34;4944400;29;19977;-71
2022/03/21 04:57:06;;;;;;;;;;;;;;;2.72;57.42;97787.53;4947193;29;20036;-71
2022/03/21 04:59:33;;;;;;;;;;;;;;;2.69;57.25;97794.72;4926833;29;20148;-71
2022/03/21 05:01:59;;;;;;;;;;;;;;;2.66;57.09;97792.44;4944202;29;19947;-71
2022/03/21 05:04:26;;;;;;;;;;;;;;;2.62;57.23;97792.72;4952479;29;19951;-71
2022/03/21 05:06:53;;;;;;;;;;;;;;;2.58;58.46;97793.09;4947340;29;19952;-71
2022/03/21 05:09:19;;;;;;;;;;;;;;;2.54;57.44;97794.31;4946744;29;19949;-70
2022/03/21 05:11:45;;;;;;;;;;;;;;;2.51;57.93;97799.75;4942739;28;19980;-71
2022/03/21 05:14:11;;;;;;;;;;;;;;;2.49;57.57;97794.72;4947516;29;19985;-71
2022/03/21 05:16:38;;;;;;;;;;;;;;;2.47;57.90;97804.38;4949495;29;19955;-71
2022/03/21 05:19:04;;;;;;;;;;;;;;;2.46;57.84;97804.50;4944534;29;19969;-71
2022/03/21 05:21:30;;;;;;;;;;;;;;;2.43;58.66;97805.59;4944667;29;19956;-71
2022/03/21 05:32:09;;;;;;;;;;;;;;;2.28;58.97;97809.53;4945864;29;20398;-72
2022/03/21 05:37:19;;;;;;;;;;;;;;;2.26;58.56;97807.06;4947334;29;19962;-71
2022/03/21 05:42:29;;;;;;;;;;;;;;;2.29;58.96;97818.91;4947068;29;19962;-72
2022/03/21 05:44:55;;;;;;;;;;;;;;;2.29;58.52;97817.16;4935885;29;19960;-70
2022/03/21 05:47:21;;;;;;;;;;;;;;;2.32;58.21;97811.69;4949778;29;19956;-71
2022/03/21 05:49:47;;;;;;;;;;;;;;;2.35;58.79;97818.38;4943776;29;19991;-71
2022/03/21 05:52:13;;;;;;;;;;;;;;;2.38;59.01;97821.53;4947869;29;19958;-71
2022/03/21 05:54:39;;;;;;;;;;;;;;;2.42;58.76;97825.50;4946918;29;20022;-70
2022/03/21 05:57:05;;;;;;;;;;;;;;;2.47;59.22;97829.47;4941669;29;19961;-71
2022/03/21 06:02:16;;;;;;;;;;;;;;;2.74;58.65;97834.84;4952088;29;19953;-71
2022/03/21 06:04:42;;;;;;;;;;;;;;;2.97;58.70;97827.63;4945826;29;19949;-70
2022/03/21 06:07:10;;;;;;;;;;;;;;;3.23;58.31;97832.25;4940445;29;20431;-71
2022/03/21 06:09:36;;;;;;;;;;;;;;;3.48;57.74;97828.28;4944835;29;19955;-71
2022/03/21 06:12:02;;;;;;;;;;;;;;;3.71;56.94;97833.16;4949480;29;20500;-71
2022/03/21 06:14:28;;;;;;;;;;;;;;;3.90;56.76;97824.50;4945032;29;20011;-70
2022/03/21 06:16:53;;;;;;;;;;;;;;;4.05;56.41;97823.91;4939437;29;20321;-70
2022/03/21 06:19:19;;;;;;;;;;;;;;;4.30;55.84;97823.41;4946755;29;20056;-70
2022/03/21 06:21:46;;;;;;;;;;;;;;;4.53;55.53;97826.41;4948630;28;19953;-70
2022/03/21 06:24:13;;;;;;;;;;;;;;;4.77;55.05;97821.50;4946830;29;19946;-71
2022/03/21 06:26:39;;;;;;;;;;;;;;;5.01;54.53;97820.09;4949863;29;20445;-69
2022/03/21 06:29:05;;;;;;;;;;;;;;;5.26;54.17;97824.53;4950200;29;19964;-71
2022/03/21 06:31:31;;;;;;;;;;;;;;;5.44;53.65;97821.13;4955002;29;19952;-70
2022/03/21 06:33:57;;;;;;;;;;;;;;;5.63;53.20;97825.31;4951818;29;19958;-73
2022/03/21 06:36:23;;;;;;;;;;;;;;;5.84;53.20;97827.56;4945009;29;19954;-70
2022/03/21 06:38:49;;;;;;;;;;;;;;;6.02;53.29;97830.13;4949937;29;20442;-70
2022/03/21 06:41:15;;;;;;;;;;;;;;;6.20;52.65;97830.88;4948797;29;19961;-71
2022/03/21 06:43:42;;;;;;;;;;;;;;;6.38;51.93;97835.97;4947151;29;19956;-70
2022/03/21 06:46:08;;;;;;;;;;;;;;;6.62;51.65;97837.88;4932416;29;19952;-70
2022/03/21 06:48:34;;;;;;;;;;;;;;;6.84;51.09;97836.44;4946590;29;20391;-70
2022/03/21 06:51:00;;;;;;;;;;;;;;;7.09;50.84;97839.91;4935598;29;20403;-70
2022/03/21 06:53:26;;;;;;;;;;;;;;;7.35;50.25;97830.31;4949937;29;19951;-70
2022/03/21 06:55:52;;;;;;;;;;;;;;;7.63;49.32;97831.63;4945044;29;19953;-70
2022/03/21 06:58:18;;;;;;;;;;;;;;;7.83;48.46;97844.31;4949904;29;20394;-71
2022/03/21 07:00:45;;;;;;;;;;;;;;;7.88;47.57;97834.22;4953786;29;19969;-70
2022/03/21 07:03:11;;;;;;;;;;;;;;;7.93;47.98;97837.94;4948410;29;19954;-70
2022/03/21 07:05:37;;;;;;;;;;;;;;;7.79;47.98;97838.63;4948939;29;20325;-70
2022/03/21 07:08:04;;;;;;;;;;;;;;;7.77;48.26;97845.81;4946076;29;19948;-70
2022/03/21 07:10:32;;;;;;;;;;;;;;;7.99;48.75;97840.88;4948863;29;20428;-70
2022/03/21 07:12:59;;;;;;;;;;;;;;;8.24;48.27;97839.81;4954149;29;19957;-70
2022/03/21 07:15:25;;;;;;;;;;;;;;;8.54;47.56;97833.03;4945775;29;20422;-70
2022/03/21 07:17:51;;;;;;;;;;;;;;;8.71;46.32;97833.78;4945343;29;20036;-71
2022/03/21 07:20:20;;;;;;;;;;;;;;;8.95;46.08;97845.09;4948861;29;20054;-70
2022/03/21 07:22:46;;;;;;;;;;;;;;;9.14;45.67;97844.63;4953253;29;20318;-70
2022/03/21 07:25:12;;;;;;;;;;;;;;;9.35;45.45;97851.03;4946601;29;19963;-71
2022/03/21 07:27:38;;;;;;;;;;;;;;;9.41;45.34;97847.72;4948961;29;19998;-70
2022/03/21 07:30:05;;;;;;;;;;;;;;;9.44;44.87;97852.59;4949530;29;19966;-71
2022/03/21 07:32:31;;;;;;;;;;;;;;;9.53;44.64;97845.47;4949170;28;20419;-70
2022/03/21 07:34:58;;;;;;;;;;;;;;;9.57;44.17;97856.44;4948853;29;19979;-70
2022/03/21 07:37:24;;;;;;;;;;;;;;;9.57;44.36;97859.03;4947980;29;19959;-70
2022/03/21 07:39:49;;;;;;;;;;;;;;;9.68;44.23;97862.06;4948175;29;19964;-71
2022/03/21 07:42:16;;;;;;;;;;;;;;;9.98;44.48;97875.22;4943183;29;20007;-71
2022/03/21 07:47:27;;;;;;;;;;;;;;;10.74;44.20;97867.19;4948494;29;19950;-71
2022/03/21 07:49:55;;;;;;;;;;;;;;;10.82;42.65;97864.47;4947986;29;19954;-70
2022/03/21 07:52:21;;;;;;;;;;;;;;;10.84;41.60;97856.41;4950943;29;19956;-71
2022/03/21 07:54:53;;;;;;;;;;;;;;;10.89;42.83;97870.59;4948930;29;19958;-71
2022/03/21 07:57:20;;;;;;;;;;;;;;;11.07;42.77;97872.03;4948544;29;19951;-71
2022/03/21 07:59:46;;;;;;;;;;;;;;;11.23;42.89;97874.38;4944084;29;19964;-71
2022/03/21 08:02:12;;;;;;;;;;;;;;;11.33;41.91;97874.09;4948821;29;19980;-71
2022/03/21 08:04:37;;;;;;;;;;;;;;;11.37;42.36;97877.97;4948478;29;19943;-71
2022/03/21 08:07:03;;;;;;;;;;;;;;;11.42;42.03;97874.78;4950561;29;20046;-71
2022/03/21 08:09:29;;;;;;;;;;;;;;;11.57;42.48;97880.81;4948669;29;19948;-71
2022/03/21 08:11:57;;;;;;;;;;;;;;;11.72;42.15;97875.47;4948672;29;19945;-71
2022/03/21 08:14:23;;;;;;;;;;;;;;;11.89;41.60;97882.09;4945556;29;19956;-71
2022/03/21 08:16:50;;;;;;;;;;;;;;;12.01;42.50;97882.41;4951065;29;19950;-71
2022/03/21 08:19:16;;;;;;;;;;;;;;;11.98;42.11;97885.41;4947094;29;19957;-71
2022/03/21 08:21:42;;;;;;;;;;;;;;;12.18;42.13;97885.53;4945486;29;19976;-71
2022/03/21 08:24:08;;;;;;;;;;;;;;;12.33;41.67;97883.59;4948179;29;20397;-71
2022/03/21 08:26:35;;;;;;;;;;;;;;;12.33;40.03;97882.81;4947773;29;19975;-71
2022/03/21 08:29:01;;;;;;;;;;;;;;;12.26;40.84;97887.19;4947465;29;19978;-71
2022/03/21 08:31:27;;;;;;;;;;;;;;;12.21;41.48;97894.88;4946868;29;19962;-71
2022/03/21 08:33:53;;;;;;;;;;;;;;;12.22;41.07;97883.31;4928055;29;19958;-71
2022/03/21 08:36:19;;;;;;;;;;;;;;;12.37;41.28;97894.56;4941152;29;20002;-71
2022/03/21 08:38:44;;;;;;;;;;;;;;;12.61;40.23;97881.94;4949928;29;19957;-71
2022/03/21 08:41:11;;;;;;;;;;;;;;;12.69;40.99;97879.94;4949997;29;19991;-73
2022/03/21 08:43:37;;;;;;;;;;;;;;;12.83;40.96;97875.56;4944768;29;19955;-71
2022/03/21 08:46:03;;;;;;;;;;;;;;;12.95;41.19;97879.22;4942460;28;20458;-71
2022/03/21 08:51:27;;;;;;;;;;;;;;;12.86;44.01;97893.59;4907452;29;20356;-70
2022/03/21 08:53:53;;;;;;;;;;;;;;;12.90;40.92;97883.47;4941470;29;19944;-71
2022/03/21 08:56:19;;;;;;;;;;;;;;;12.76;40.46;97879.97;4951232;29;20386;-71
2022/03/21 08:58:44;;;;;;;;;;;;;;;12.61;40.84;97892.47;4951728;29;20005;-71
2022/03/21 09:01:10;;;;;;;;;;;;;;;12.82;45.62;97897.63;4942995;29;19965;-71
2022/03/21 09:03:36;;;;;;;;;;;;;;;13.21;46.06;97898.78;4926784;29;19954;-70
2022/03/21 09:06:02;;;;;;;;;;;;;;;13.50;39.32;97875.72;4953104;29;19954;-71
2022/03/21 09:08:28;;;;;;;;;;;;;;;13.57;39.90;97885.28;4941598;29;19952;-71
2022/03/21 09:10:55;;;;;;;;;;;;;;;13.58;39.61;97883.44;4944041;29;20424;-71
2022/03/21 09:13:21;;;;;;;;;;;;;;;13.60;38.73;97882.22;4947833;29;19955;-71
2022/03/21 09:15:46;;;;;;;;;;;;;;;13.64;39.18;97881.84;4948747;29;20365;-71
2022/03/21 09:18:12;;;;;;;;;;;;;;;13.78;39.54;97886.13;4944623;29;19948;-71
2022/03/21 09:20:38;;;;;;;;;;;;;;;13.96;38.44;97875.78;4949930;29;19976;-71
2022/03/21 09:23:04;;;;;;;;;;;;;;;14.06;38.40;97877.16;4931274;29;20005;-71
2022/03/21 09:25:30;;;;;;;;;;;;;;;14.05;39.21;97880.81;4946044;29;20447;-70
2022/03/21 09:27:56;;;;;;;;;;;;;;;13.94;39.03;97877.78;4941424;29;19963;-71
2022/03/21 09:30:23;;;;;;;;;;;;;;;13.91;38.56;97872.91;4947649;29;20012;-70
2022/03/21 09:32:49;;;;;;;;;;;;;;;13.76;38.87;97878.41;4946655;29;19962;-70
2022/03/21 09:35:15;;;;;;;;;;;;;;;13.68;38.59;97881.22;4944910;29;19953;-70
2022/03/21 09:37:41;;;;;;;;;;;;;;;13.66;39.01;97883.25;4946538;29;20424;-71
2022/03/21 09:40:07;;;;;;;;;;;;;;;13.70;43.15;97884.47;4942834;29;19966;-70
2022/03/21 09:42:33;;;;;;;;;;;;;;;13.96;43.58;97883.69;4945633;29;19959;-71
2022/03/21 09:45:00;;;;;;;;;;;;;;;14.43;43.62;97882.81;4945759;29;20434;-71
2022/03/21 09:50:12;;;;;;;;;;;;;;;15.17;40.19;97863.00;4947067;29;19959;-71
2022/03/21 09:52:38;;;;;;;;;;;;;;;15.45;39.80;97861.81;4941465;29;19944;-71
2022/03/21 09:55:05;;;;;;;;;;;;;;;15.59;39.08;97861.50;4947324;29;19949;-71
2022/03/21 09:57:31;;;;;;;;;;;;;;;15.58;38.81;97862.53;4947921;28;20369;-70
2022/03/21 09:59:58;;;;;;;;;;;;;;;15.70;39.05;97869.78;4947770;29;19959;-71
2022/03/21 10:02:24;;;;;;;;;;;;;;;15.85;38.62;97866.84;4942067;29;19947;-71
2022/03/21 10:04:50;;;;;;;;;;;;;;;15.79;35.87;97865.84;4943947;29;19962;-71
2022/03/21 10:07:22;;;;;;;;;;;;;;;15.58;36.50;97857.25;4952069;29;20423;-71
2022/03/21 10:10:04;;;;;;;;;;;;;;;15.43;38.46;97870.78;4946303;29;20300;-71
2022/03/21 10:12:30;;;;;;;;;;;;;;;15.38;37.27;97854.75;4925434;29;19947;-71
2022/03/21 10:14:57;;;;;;;;;;;;;;;15.50;38.63;97860.16;4946879;29;19946;-71
2022/03/21 10:17:23;;;;;;;;;;;;;;;15.76;38.63;97861.00;4951256;29;19958;-71
2022/03/21 10:19:49;;;;;;;;;;;;;;;15.97;36.99;97849.22;4948759;29;20343;-71
2022/03/21 10:22:20;;;;;;;;;;;;;;;16.13;38.35;97853.97;4939358;29;19955;-71
2022/03/21 10:24:47;;;;;;;;;;;;;;;16.34;37.13;97854.56;4945301;29;19965;-71
2022/03/21 10:27:27;;;;;;;;;;;;;;;16.45;36.16;97840.59;4944521;29;19996;-71
2022/03/21 10:29:53;;;;;;;;;;;;;;;16.50;36.93;97847.88;4934274;29;19961;-71
2022/03/21 10:32:33;;;;;;;;;;;;;;;16.52;36.31;97838.66;4946161;29;19940;-71
2022/03/21 10:35:20;;;;;;;;;;;;;;;16.49;36.74;97835.69;4943664;29;20406;-71
2022/03/21 10:37:49;;;;;;;;;;;;;;;16.53;36.51;97831.56;4942146;29;19949;-71
2022/03/21 10:40:19;;;;;;;;;;;;;;;16.67;37.37;97833.00;4946318;29;19972;-71
2022/03/21 10:42:48;;;;;;;;;;;;;;;16.86;37.66;97833.00;4946887;29;19956;-71
2022/03/21 10:45:14;;;;;;;;;;;;;;;17.07;37.36;97829.03;4944874;29;19948;-70
2022/03/21 10:47:50;;;;;;;;;;;;;;;17.17;35.44;97824.00;4942755;29;19980;-71
2022/03/21 10:50:25;;;;;;;;;;;;;;;17.08;36.69;97831.47;4950223;29;19952;-71
2022/03/21 10:53:07;;;;;;;;;;;;;;;17.01;34.20;97828.13;4929318;29;19992;-71
2022/03/21 10:55:33;;;;;;;;;;;;;;;16.74;35.02;97828.44;4944247;29;19958;-71
2022/03/21 10:57:59;;;;;;;;;;;;;;;16.56;35.04;97831.09;4945301;29;20407;-71
2022/03/21 11:00:26;;;;;;;;;;;;;;;16.55;36.01;97825.00;4942957;29;19964;-71
2022/03/21 11:02:57;;;;;;;;;;;;;;;16.63;34.90;97823.88;4944797;29;20337;-72
2022/03/21 11:05:24;;;;;;;;;;;;;;;16.54;33.65;97815.41;4948320;29;19957;-71
2022/03/21 11:07:50;;;;;;;;;;;;;;;16.71;36.12;97828.06;4948926;28;20321;-71
2022/03/21 11:10:16;;;;;;;;;;;;;;;17.04;35.17;97825.00;4948659;29;19948;-71
2022/03/21 11:12:43;;;;;;;;;;;;;;;17.38;34.99;97812.88;4946251;29;19945;-71
2022/03/21 11:15:09;;;;;;;;;;;;;;;17.69;34.54;97810.97;4944459;29;19945;-71
2022/03/21 11:17:36;;;;;;;;;;;;;;;17.93;33.90;97795.91;4954770;29;20419;-71
2022/03/21 11:20:05;;;;;;;;;;;;;;;18.13;33.69;97794.72;4947271;29;19964;-71
2022/03/21 11:22:35;;;;;;;;;;;;;;;18.19;32.70;97796.44;4946468;29;20414;-71
2022/03/21 11:25:05;;;;;;;;;;;;;;;18.16;33.25;97807.50;4933935;29;19953;-71
2022/03/21 11:27:31;;;;;;;;;;;;;;;18.12;33.46;97801.88;4950204;29;19963;-70
2022/03/21 11:30:00;;;;;;;;;;;;;;;18.12;32.30;97801.06;4942403;29;20319;-72
2022/03/21 11:32:30;;;;;;;;;;;;;;;18.14;32.98;97794.50;4947839;29;20313;-71
2022/03/21 11:35:15;;;;;;;;;;;;;;;18.32;33.65;97795.38;4947644;29;19946;-71
2022/03/21 11:37:42;;;;;;;;;;;;;;;18.52;32.30;97792.31;4953501;29;19957;-71
2022/03/21 11:40:26;;;;;;;;;;;;;;;18.53;31.99;97792.09;4946502;29;19959;-71
2022/03/21 11:42:54;;;;;;;;;;;;;;;18.33;32.60;97789.84;4934317;29;19949;-71
2022/03/21 11:45:27;;;;;;;;;;;;;;;18.23;32.31;97787.78;4944785;29;19944;-71
2022/03/21 11:48:11;;;;;;;;;;;;;;;18.09;31.88;97780.28;4946619;29;19962;-71
2022/03/21 11:50:37;;;;;;;;;;;;;;;17.88;32.10;97781.69;4937395;29;19946;-71
2022/03/21 11:53:04;;;;;;;;;;;;;;;17.61;32.40;97779.47;4947915;29;20051;-71
2022/03/21 11:55:35;;;;;;;;;;;;;;;17.39;31.27;97780.03;4948999;29;19962;-71
2022/03/21 11:58:21;;;;;;;;;;;;;;;17.40;32.83;97781.63;4949930;29;19954;-71
2022/03/21 12:01:03;;;;;;;;;;;;;;;17.55;32.16;97775.06;4934434;29;20305;-71
2022/03/21 12:03:29;;;;;;;;;;;;;;;17.61;31.90;97777.63;4948458;29;19957;-71
2022/03/21 12:05:55;;;;;;;;;;;;;;;17.61;30.79;97767.00;4945542;29;20362;-71
2022/03/21 12:08:30;;;;;;;;;;;;;;;17.58;30.72;97770.13;4952410;29;19961;-71
2022/03/21 12:10:56;;;;;;;;;;;;;;;17.69;31.69;97757.09;4950119;29;19949;-71
2022/03/21 12:13:22;;;;;;;;;;;;;;;17.79;32.52;97760.78;4942027;29;20362;-71
2022/03/21 12:15:51;;;;;;;;;;;;;;;17.80;28.70;97758.94;4952824;29;20386;-71
2022/03/21 12:18:19;;;;;;;;;;;;;;;17.61;29.01;97760.91;4947595;29;19942;-71
2022/03/21 12:20:49;;;;;;;;;;;;;;;17.58;29.33;97759.53;4942882;29;19964;-72
2022/03/21 12:23:17;;;;;;;;;;;;;;;17.59;29.19;97758.47;4933713;29;19973;-71
2022/03/21 12:25:46;;;;;;;;;;;;;;;17.62;28.84;97746.59;4945511;29;19989;-71
2022/03/21 12:28:24;;;;;;;;;;;;;;;17.81;28.60;97748.09;4948585;29;19949;-71
2022/03/21 12:30:50;;;;;;;;;;;;;;;17.97;29.75;97741.28;4950568;29;19946;-71
2022/03/21 12:33:16;;;;;;;;;;;;;;;18.05;29.51;97734.81;4948022;29;20463;-71
2022/03/21 12:35:47;;;;;;;;;;;;;;;18.21;29.59;97739.41;4944487;29;20014;-71
2022/03/21 12:38:14;;;;;;;;;;;;;;;18.42;30.42;97732.63;4948251;29;19949;-71
2022/03/21 12:41:00;;;;;;;;;;;;;;;18.51;29.50;97737.56;4951259;29;20343;-71
2022/03/21 12:43:30;;;;;;;;;;;;;;;18.59;29.56;97738.00;4946970;29;19953;-71
2022/03/21 12:46:08;;;;;;;;;;;;;;;18.58;28.74;97733.75;4948061;29;19955;-71
2022/03/21 12:48:34;;;;;;;;;;;;;;;18.63;29.54;97727.72;4944664;29;19956;-71
2022/03/21 12:51:01;;;;;;;;;;;;;;;18.64;29.10;97729.31;4944999;29;19945;-71
2022/03/21 12:53:44;;;;;;;;;;;;;;;18.65;28.77;97729.09;4946780;29;19955;-71
2022/03/21 12:56:13;;;;;;;;;;;;;;;18.74;28.98;97721.53;4930629;29;19946;-70
2022/03/21 12:58:42;;;;;;;;;;;;;;;18.58;28.55;97720.47;4944244;29;19955;-70
2022/03/21 13:01:09;;;;;;;;;;;;;;;18.59;28.76;97718.59;4943340;29;19969;-70
2022/03/21 13:03:35;;;;;;;;;;;;;;;18.52;27.62;97718.75;4946471;29;19955;-71
2022/03/21 13:11:46;;;;;;;;;;;;;;;18.43;29.23;97718.28;4891073;29;19985;-71
2022/03/21 13:14:16;;;;;;;;;;;;;;;18.53;29.52;97719.56;4946185;29;19956;-71
2022/03/21 13:16:46;;;;;;;;;;;;;;;18.61;28.59;97717.31;4945648;29;19949;-71
2022/03/21 13:19:27;;;;;;;;;;;;;;;18.56;28.95;97711.91;4947900;29;19978;-71
2022/03/21 13:21:54;;;;;;;;;;;;;;;18.58;28.56;97711.66;4947090;29;19967;-71
2022/03/21 13:24:35;;;;;;;;;;;;;;;18.49;26.34;97711.25;4942931;29;20318;-71
2022/03/21 13:27:01;;;;;;;;;;;;;;;18.31;28.78;97706.94;4951071;29;19980;-71